Time;durP1;ratioP1;P1;durP2;ratioP2;P2;SDS_P1;SDS_P2;PMS_P1;PMS_P2;Temp;Humidity;BMP_temperature;BMP_pressure;BME280_temperature;BME280_humidity;BME280_pressure;Samples;Min_cycle;Max_cycle;Signal;HPM_P1;HPM_P2
2023/06/29 00:04:10;;;;;;;24.40;10.00;;;;;;;15.75;81.87;98487.60;435363;1253;107671;-43
2023/06/29 00:14:17;;;;;;;13.30;8.80;;;;;;;15.75;81.92;98488.52;435226;1253;98071;-42
2023/06/29 00:24:24;;;;;;;19.20;11.20;;;;;;;15.73;82.23;98489.03;435273;1263;111434;-42
2023/06/29 00:34:32;;;;;;;16.90;10.90;;;;;;;15.74;82.42;98482.11;435115;1263;107045;-41
2023/06/29 00:44:39;;;;;;;13.30;10.30;;;;;;;15.84;82.55;98485.42;435329;1251;99256;-43
2023/06/29 00:54:47;;;;;;;29.20;11.90;;;;;;;15.84;82.68;98478.33;435388;1251;108878;-43
2023/06/29 01:04:54;;;;;;;17.50;12.80;;;;;;;15.81;82.62;98480.60;435209;1263;99221;-44
2023/06/29 01:15:01;;;;;;;18.40;12.90;;;;;;;15.79;82.98;98475.17;435208;1253;110858;-43
2023/06/29 01:25:10;;;;;;;16.30;12.50;;;;;;;15.78;82.83;98466.00;436016;1251;108881;-43
2023/06/29 01:35:18;;;;;;;15.70;12.60;;;;;;;15.79;83.10;98473.46;435395;1254;99349;-42
2023/06/29 01:45:27;;;;;;;17.40;13.50;;;;;;;15.77;83.06;98473.57;435301;1251;107807;-43
2023/06/29 01:55:34;;;;;;;22.50;13.20;;;;;;;15.72;83.40;98471.55;435274;1253;99208;-42
2023/06/29 02:05:41;;;;;;;15.90;12.00;;;;;;;15.73;83.50;98470.22;435322;1263;111804;-43
2023/06/29 02:15:48;;;;;;;18.00;14.20;;;;;;;15.76;83.41;98466.48;435281;1263;109312;-43
2023/06/29 02:25:56;;;;;;;18.20;15.30;;;;;;;15.77;83.52;98475.55;435361;1253;99291;-43
2023/06/29 02:36:04;;;;;;;19.20;15.60;;;;;;;15.76;83.40;98479.02;435308;1253;107883;-44
2023/06/29 02:46:11;;;;;;;23.40;15.40;;;;;;;15.68;83.50;98491.86;435304;1250;99228;-43
2023/06/29 02:56:19;;;;;;;19.90;13.60;;;;;;;15.66;83.67;98505.67;435184;1254;112095;-42
2023/06/29 03:06:26;;;;;;;23.00;16.40;;;;;;;15.61;83.71;98509.34;435273;1254;107623;-42
2023/06/29 03:16:34;;;;;;;27.10;15.70;;;;;;;15.48;84.12;98514.89;435269;1250;99321;-42
2023/06/29 03:26:41;;;;;;;21.30;15.60;;;;;;;15.45;84.25;98520.80;435061;1251;364840;-43
2023/06/29 03:36:48;;;;;;;28.30;15.90;;;;;;;15.43;84.36;98531.98;435276;1254;99230;-42
2023/06/29 03:46:55;;;;;;;19.00;15.00;;;;;;;15.38;84.70;98535.65;435334;1251;111770;-43
2023/06/29 03:57:03;;;;;;;25.30;17.10;;;;;;;15.35;84.96;98540.80;435372;1254;107243;-43
2023/06/29 04:07:10;;;;;;;21.60;17.20;;;;;;;15.39;85.04;98541.89;435391;1254;99265;-43
2023/06/29 04:17:18;;;;;;;30.60;17.20;;;;;;;15.38;85.15;98549.70;435090;1254;108026;-44
2023/06/29 04:27:25;;;;;;;25.30;17.70;;;;;;;15.39;85.42;98555.21;435184;1251;99227;-45
2023/06/29 04:57:47;;;;;;;25.00;17.40;;;;;;;15.55;85.50;98559.40;435296;1254;99227;-42
2023/06/29 05:07:54;;;;;;;27.80;16.80;;;;;;;15.67;85.66;98561.38;435374;1250;107752;-44
2023/06/29 05:18:02;;;;;;;19.70;14.00;;;;;;;15.90;85.75;98566.20;435274;1251;99221;-44
2023/06/29 05:28:10;;;;;;;19.50;14.20;;;;;;;16.13;85.67;98568.19;436002;1249;112094;-43
2023/06/29 05:38:17;;;;;;;16.70;13.10;;;;;;;16.22;85.51;98573.46;435233;1263;109263;-42
2023/06/29 05:48:25;;;;;;;19.30;14.10;;;;;;;16.29;85.52;98573.36;435466;1251;99323;-43
2023/06/29 05:58:32;;;;;;;19.00;14.10;;;;;;;16.42;85.29;98577.56;435150;1249;109372;-43
2023/06/29 06:08:40;;;;;;;19.80;13.00;;;;;;;16.55;84.97;98584.07;435531;1253;99150;-43
2023/06/29 06:18:47;;;;;;;22.10;15.60;;;;;;;16.59;84.86;98580.05;435462;1250;110790;-42
2023/06/29 06:28:54;;;;;;;15.90;13.10;;;;;;;16.58;84.66;98582.95;435357;1251;109358;-43
2023/06/29 06:39:02;;;;;;;15.40;12.00;;;;;;;16.83;84.37;98587.88;435286;1253;99259;-43
2023/06/29 06:49:10;;;;;;;15.70;13.40;;;;;;;17.00;84.25;98586.51;435393;1253;107592;-43
2023/06/29 06:59:17;;;;;;;19.10;14.10;;;;;;;17.13;84.27;98603.23;435495;1253;99208;-44
2023/06/29 07:09:25;;;;;;;17.20;14.70;;;;;;;17.17;84.18;98607.81;435320;1253;111082;-42
2023/06/29 07:19:32;;;;;;;20.00;14.90;;;;;;;17.26;84.16;98607.77;435385;1250;108996;-42
2023/06/29 07:39:50;;;;;;;16.10;11.40;;;;;;;17.97;83.69;98607.64;435339;1253;108660;-43
2023/06/29 07:49:57;;;;;;;15.60;10.10;;;;;;;18.49;83.48;98601.61;435332;1250;99224;-42
2023/06/29 08:00:06;;;;;;;13.40;9.60;;;;;;;19.59;83.60;98596.16;435512;1251;112162;-42
2023/06/29 08:10:12;;;;;;;9.20;8.00;;;;;;;20.62;81.91;98589.56;435498;1250;107953;-42
2023/06/29 08:20:20;;;;;;;8.70;6.70;;;;;;;21.17;80.54;98582.40;435402;1249;98413;-43
2023/06/29 08:30:27;;;;;;;7.80;6.90;;;;;;;22.13;79.37;98578.50;435435;1250;108103;-41
2023/06/29 08:40:36;;;;;;;10.40;7.00;;;;;;;22.26;77.40;98578.44;435203;1250;99253;-43
2023/06/29 08:50:41;;;;;;;4.70;4.30;;;;;;;22.82;76.13;98577.08;435522;1253;111528;-41
2023/06/29 09:00:50;;;;;;;6.80;4.60;;;;;;;23.28;74.81;98579.96;435479;1251;107671;-41
2023/06/29 09:10:57;;;;;;;8.30;4.20;;;;;;;23.22;72.69;98576.18;435542;1250;99234;-42
2023/06/29 09:21:05;;;;;;;7.00;4.30;;;;;;;23.53;70.88;98573.40;435373;1250;109721;-42
2023/06/29 09:41:19;;;;;;;4.70;3.70;;;;;;;24.22;68.74;98565.97;435391;1253;111220;-42
2023/06/29 09:51:27;;;;;;;9.60;4.50;;;;;;;24.23;67.34;98565.50;435308;1253;108325;-41
2023/06/29 10:01:35;;;;;;;5.00;3.60;;;;;;;24.58;66.65;98559.41;435421;1253;98789;-42
2023/06/29 10:11:46;;;;;;;5.00;4.10;;;;;;;24.85;66.43;98558.42;435525;1250;106934;-42
2023/06/29 10:21:56;;;;;;;8.40;3.30;;;;;;;25.32;64.30;98549.10;435598;1251;98813;-41
2023/06/29 10:32:02;;;;;;;7.70;4.30;;;;;;;24.78;62.84;98545.95;435623;1250;111730;-41
2023/06/29 10:42:34;;;;;;;6.00;3.50;;;;;;;25.09;63.46;98539.77;435241;1251;106364;-40
2023/06/29 10:52:43;;;;;;;9.20;4.20;;;;;;;25.10;61.89;98528.08;435432;1250;98002;-41
2023/06/29 11:02:49;;;;;;;7.30;3.70;;;;;;;24.46;61.04;98528.61;435377;1253;107885;-42
2023/06/29 11:12:57;;;;;;;5.40;4.10;;;;;;;25.06;60.77;98526.55;435476;1250;99224;-42
2023/06/29 11:23:07;;;;;;;8.20;4.00;;;;;;;25.74;59.91;98517.11;435948;1253;111091;-41
2023/06/29 11:33:14;;;;;;;4.40;3.30;;;;;;;25.12;58.79;98518.00;435366;1251;106716;-41
2023/06/29 11:43:41;;;;;;;7.80;3.10;;;;;;;25.01;58.19;98513.55;435443;1250;99041;-42
2023/06/29 11:53:49;;;;;;;5.20;3.70;;;;;;;25.30;57.21;98506.69;435597;1253;107528;-41
2023/06/29 12:03:56;;;;;;;5.10;3.30;;;;;;;25.40;57.23;98499.42;435513;1253;99211;-42
2023/06/29 12:14:06;;;;;;;4.40;3.00;;;;;;;25.53;55.76;98496.20;435893;1250;111418;-42
2023/06/29 12:24:17;;;;;;;5.90;3.90;;;;;;;25.91;56.22;98479.04;436060;1253;107393;-41
2023/06/29 12:34:25;;;;;;;7.20;3.30;;;;;;;25.86;55.38;98469.27;435378;1253;99263;-42
2023/06/29 12:44:32;;;;;;;6.50;3.50;;;;;;;25.87;54.81;98460.70;435486;1251;108187;-42
2023/06/29 12:54:39;;;;;;;5.10;3.10;;;;;;;26.17;54.20;98456.92;435406;1251;98263;-42
2023/06/29 13:04:47;;;;;;;3.70;3.10;;;;;;;26.40;53.56;98450.11;435487;1251;112173;-41
2023/06/29 13:14:55;;;;;;;3.80;3.00;;;;;;;25.78;53.40;98442.74;435338;1250;108643;-42
2023/06/29 13:25:02;;;;;;;4.80;3.20;;;;;;;25.59;52.41;98434.09;435510;1253;97984;-41
2023/06/29 13:35:11;;;;;;;3.00;2.80;;;;;;;25.56;51.78;98433.05;435693;1251;108181;-42
2023/06/29 13:45:18;;;;;;;3.50;2.80;;;;;;;25.65;51.28;98431.54;435585;1251;99230;-41
2023/06/29 13:55:28;;;;;;;3.60;2.80;;;;;;;25.66;51.26;98422.28;435316;1250;112242;-41
2023/06/29 14:05:36;;;;;;;3.00;2.60;;;;;;;25.69;51.23;98414.46;435322;1250;109691;-42
2023/06/29 14:15:43;;;;;;;2.60;2.40;;;;;;;25.84;51.21;98410.67;435222;1251;98056;-42
2023/06/29 14:25:51;;;;;;;5.20;2.50;;;;;;;25.76;49.91;98404.27;435275;1254;108856;-41
2023/06/29 14:35:59;;;;;;;2.60;2.00;;;;;;;25.66;50.05;98387.68;435428;1250;98415;-43
2023/06/29 14:46:06;;;;;;;4.50;2.30;;;;;;;25.56;49.68;98380.70;435437;1253;112807;-42
2023/06/29 14:56:13;;;;;;;2.70;2.50;;;;;;;25.34;49.56;98371.10;435290;1250;109426;-43
2023/06/29 15:06:21;;;;;;;2.90;2.70;;;;;;;25.16;49.72;98364.48;435326;1251;99201;-41
2023/06/29 15:16:29;;;;;;;2.90;2.70;;;;;;;24.80;49.80;98358.21;435468;1253;107812;-42
2023/06/29 15:26:36;;;;;;;3.90;2.20;;;;;;;24.78;50.01;98353.27;435120;1253;399001;-45
2023/06/29 15:36:44;;;;;;;4.60;2.60;;;;;;;24.74;49.85;98346.99;435441;1249;112870;-41
2023/06/29 15:46:50;;;;;;;;;;;;;;;24.65;49.94;98344.80;435306;1253;107818;-42
2023/06/29 15:56:57;;;;;;;2.60;2.00;;;;;;;24.52;49.83;98340.20;435563;1253;99253;-43
2023/06/29 16:17:13;;;;;;;4.30;2.50;;;;;;;24.24;49.80;98333.02;435364;1250;98040;-43
2023/06/29 16:27:21;;;;;;;3.00;2.20;;;;;;;23.88;50.18;98337.90;435335;1251;111982;-45
2023/06/29 16:37:27;;;;;;;4.80;2.30;;;;;;;23.92;50.92;98327.13;435256;1251;108109;-42
2023/06/29 16:47:35;;;;;;;4.00;2.30;;;;;;;23.88;51.16;98314.84;435370;1249;97986;-41
2023/06/29 16:57:40;;;;;;;;;;;;;;;23.65;51.35;98319.43;435545;1253;108378;-42
2023/06/29 17:17:54;;;;;;;6.90;4.00;;;;;;;22.90;52.46;98327.81;435375;1253;112431;-42
2023/06/29 17:28:00;;;;;;;;;;;;;;;22.91;53.05;98321.78;435313;1253;108458;-42
2023/06/29 17:38:09;;;;;;;4.40;3.80;;;;;;;22.90;53.44;98320.83;435361;1251;99233;-42
2023/06/29 17:48:16;;;;;;;4.90;3.40;;;;;;;22.78;53.65;98314.00;435458;1253;107950;-42
2023/06/29 17:58:23;;;;;;;3.90;3.60;;;;;;;22.59;54.15;98311.57;435281;1253;99246;-43
2023/06/29 18:08:31;;;;;;;7.30;4.00;;;;;;;22.40;54.32;98304.52;435565;1253;111687;-43
2023/06/29 18:18:38;;;;;;;3.90;3.40;;;;;;;22.17;54.57;98304.14;435348;1264;108576;-43
2023/06/29 18:28:47;;;;;;;7.30;5.30;;;;;;;21.96;54.88;98302.14;435418;1254;99191;-42
2023/06/29 18:38:54;;;;;;;5.80;4.60;;;;;;;21.65;55.44;98299.65;435320;1251;107804;-44
2023/06/29 18:49:01;;;;;;;9.90;4.40;;;;;;;21.20;56.30;98302.34;435377;1253;99224;-43
2023/06/29 18:59:12;;;;;;;16.10;5.80;;;;;;;20.73;57.11;98308.86;435429;1263;113478;-43
2023/06/29 19:09:19;;;;;;;13.40;6.00;;;;;;;20.33;58.12;98314.02;435172;1257;107567;-43
2023/06/29 19:19:26;;;;;;;11.70;6.40;;;;;;;19.90;59.14;98321.89;435400;1260;99314;-43
2023/06/29 19:29:33;;;;;;;13.00;6.20;;;;;;;19.52;60.09;98334.16;435294;1263;108434;-44
2023/06/29 19:39:41;;;;;;;18.40;7.10;;;;;;;19.16;60.62;98336.20;435379;1253;97969;-45
2023/06/29 19:49:48;;;;;;;11.80;5.60;;;;;;;18.87;61.70;98337.22;435232;1253;112557;-43
2023/06/29 19:59:56;;;;;;;8.50;5.10;;;;;;;18.69;62.24;98341.52;435402;1253;108661;-43
2023/06/29 20:10:03;;;;;;;11.10;5.90;;;;;;;18.42;62.79;98346.44;435304;1251;99195;-43
2023/06/29 20:20:12;;;;;;;11.90;4.60;;;;;;;18.17;63.37;98341.98;435288;1255;107745;-43
2023/06/29 20:30:19;;;;;;;9.10;5.80;;;;;;;17.93;64.03;98339.42;435295;1253;99852;-42
2023/06/29 20:40:27;;;;;;;12.90;7.20;;;;;;;17.75;64.74;98338.48;435411;1263;111985;-43
2023/06/29 20:50:34;;;;;;;11.30;7.50;;;;;;;17.50;65.25;98340.09;435242;1251;107893;-42
2023/06/29 21:00:40;;;;;;;13.60;8.20;;;;;;;17.39;65.63;98344.88;435275;1254;99240;-41
2023/06/29 21:10:47;;;;;;;15.70;9.10;;;;;;;17.41;66.06;98339.36;435361;1263;108243;-42
2023/06/29 21:20:54;;;;;;;12.30;8.60;;;;;;;17.43;66.52;98341.70;435206;1251;99208;-43
2023/06/29 21:31:02;;;;;;;13.60;9.20;;;;;;;17.39;66.84;98332.43;435467;1251;111945;-42
2023/06/29 21:41:08;;;;;;;14.90;8.50;;;;;;;17.28;67.13;98335.10;435394;1263;108108;-41
2023/06/29 21:51:15;;;;;;;12.60;7.70;;;;;;;17.14;67.15;98335.48;435393;1254;99211;-42
2023/06/29 22:01:23;;;;;;;13.40;8.00;;;;;;;16.99;67.42;98329.71;435126;1263;107629;-41
2023/06/29 22:11:30;;;;;;;10.40;9.00;;;;;;;16.87;67.71;98321.95;435312;1254;99244;-41
2023/06/29 22:21:41;;;;;;;10.70;8.60;;;;;;;16.62;68.43;98320.05;435298;1251;110871;-42
2023/06/29 22:31:48;;;;;;;10.80;7.00;;;;;;;16.58;68.72;98317.41;435261;1253;107853;-43
2023/06/29 22:41:55;;;;;;;10.60;6.90;;;;;;;16.61;68.69;98316.27;435418;1253;99243;-42
2023/06/29 22:52:02;;;;;;;11.60;7.60;;;;;;;16.56;68.91;98315.17;435297;1263;108332;-42
2023/06/29 23:02:09;;;;;;;13.60;7.90;;;;;;;16.44;69.11;98322.23;435345;1251;99215;-42
2023/06/29 23:12:21;;;;;;;13.20;6.90;;;;;;;16.35;69.16;98318.39;435255;1254;111360;-42
2023/06/29 23:22:28;;;;;;;11.00;7.80;;;;;;;16.29;69.31;98312.75;435202;1254;109350;-41
2023/06/29 23:42:44;;;;;;;9.30;7.90;;;;;;;16.27;69.74;98318.62;435480;1254;106947;-42
2023/06/29 23:52:52;;;;;;;15.30;10.00;;;;;;;16.13;69.86;98307.75;435416;1255;97982;-42
